K9MWM-1 Weather Reports


Display with metric or nautical units.
time (UTC)temp
F
wind
direction
speed
MPH
gust
MPH
rain 1hr
in
rain 24hr
in
rain mn
in
humidity
%
barometer
mb
20240622100644 47 337 0.0 2.0 0.00 0.00 0.00
20240622100131 47 213 0.0 1.0 0.00 0.00 0.00
20240622095105 47 0 0.0 2.0 0.00 0.00 0.00
20240622094553 47 326 0.0 0.0 0.00 0.00 0.00
20240622094040 47 337 0.0 0.0 0.00 0.00 0.00
20240622093014 48 142 0.0 1.0 0.00 0.00 0.00
20240622092501 48 337 0.0 0.0 0.00 0.00 0.00
20240622091949 48 337 0.0 1.0 0.00 0.00 0.00
20240622091435 48 337 0.0 1.0 0.00 0.00 0.00
20240622090923 48 337 0.0 2.0 0.00 0.00 0.00
20240622090502 48 337 0.0 1.0 0.00 0.00 0.00
20240622090411 48 337 0.0 1.0 0.00 0.00 0.00
20240622085857 48 337 1.0 2.0 0.00 0.00 0.00
20240622085344 48 337 0.0 1.0 0.00 0.00 0.00
20240622084318 48 337 0.0 1.0 0.00 0.00 0.00
20240622083806 48 337 0.0 1.0 0.00 0.00 0.00
20240622083253 49 337 0.0 1.0 0.00 0.00 0.00
20240622082740 49 337 0.0 1.0 0.00 0.00 0.00
20240622082227 49 337 0.0 2.0 0.00 0.00 0.00
20240622081714 49 270 0.0 2.0 0.00 0.00 0.00
20240622081201 49 120 0.0 1.0 0.00 0.00 0.00
20240622080648 49 225 0.0 3.0 0.00 0.00 0.00
20240622080136 49 112 0.0 2.0 0.00 0.00 0.00
20240622075623 48 337 0.0 2.0 0.00 0.00 0.00
20240622075110 48 337 0.0 1.0 0.00 0.00 0.00
20240622074557 48 337 0.0 1.0 0.00 0.00 0.00
20240622074044 48 337 0.0 1.0 0.00 0.00 0.00
20240622073532 49 337 0.0 0.0 0.00 0.00 0.00
20240622072506 49 337 0.0 1.0 0.00 0.00 0.00
20240622071953 49 337 0.0 0.0 0.00 0.00 0.00
20240622071440 49 45 0.0 1.0 0.00 0.00 0.00
20240622070414 49 337 0.0 2.0 0.00 0.00 0.00
20240622065901 49 337 0.0 1.0 0.00 0.00 0.00
20240622065349 49 337 0.0 1.0 0.00 0.00 0.00
20240622064836 49 337 0.0 1.0 0.00 0.00 0.00
20240622064323 49 337 0.0 1.0 0.00 0.00 0.00
20240622063810 49 337 0.0 1.0 0.00 0.00 0.00
20240622063257 50 337 0.0 1.0 0.00 0.00 0.00
20240622062745 50 337 0.0 1.0 0.00 0.00 0.00
20240622062232 50 337 0.0 2.0 0.00 0.00 0.00
20240622061719 50 337 0.0 2.0 0.00 0.00 0.00
20240622061206 50 337 0.0 2.0 0.00 0.00 0.00
20240622060653 50 337 0.0 2.0 0.00 0.00 0.00
20240622060140 50 96 0.0 1.0 0.00 0.00 0.00
20240622055627 50 202 0.0 2.0 0.00 0.00 0.00
20240622055114 50 270 1.0 2.0 0.00 0.00 0.00
20240622054603 50 337 0.0 3.0 0.00 0.00 0.00
20240622054049 50 337 0.0 1.0 0.00 0.00 0.00
20240622053536 50 337 1.0 2.0 0.00 0.00 0.00
20240622053023 51 337 0.0 1.0 0.00 0.00 0.00
20240622051445 51 337 0.0 1.0 0.00 0.00 0.00
20240622050932 51 337 0.0 1.0 0.00 0.00 0.00
20240622050419 51 247 0.0 0.0 0.00 0.00 0.00
20240622045906 51 337 0.0 2.0 0.00 0.00 0.00
20240622045353 51 337 0.0 2.0 0.00 0.00 0.00
20240622044840 51 0 0.0 2.0 0.00 0.00 0.00
20240622044328 52 112 1.0 3.0 0.00 0.00 0.00
20240622043815 52 337 0.0 1.0 0.00 0.00 0.00
20240622043302 52 337 0.0 1.0 0.00 0.00 0.00
20240622042749 53 292 0.0 2.0 0.00 0.00 0.00
20240622042236 53 337 0.0 2.0 0.00 0.00 0.00
20240622041723 53 45 1.0 2.0 0.00 0.00 0.00
20240622041211 53 337 0.0 3.0 0.00 0.00 0.00
20240622040658 53 101 0.0 2.0 0.00 0.00 0.00
20240622040145 53 270 0.0 3.0 0.00 0.00 0.00
20240622035632 53 337 0.0 3.0 0.00 0.00 0.00
20240622035119 53 159 1.0 5.0 0.00 0.00 0.00
20240622034606 53 141 3.0 6.0 0.00 0.00 0.00
20240622034053 53 337 3.0 4.0 0.00 0.00 0.00
20240622033540 53 135 0.0 5.0 0.00 0.00 0.00
20240622032515 53 90 0.0 5.0 0.00 0.00 0.00
20240622031449 53 337 1.0 3.0 0.00 0.00 0.00
20240622030424 54 337 0.0 1.0 0.00 0.00 0.00
20240622025910 54 139 0.0 1.0 0.00 0.00 0.00
20240622024333 55 135 0.0 1.0 0.00 0.00 0.00
20240622023819 55 112 0.0 3.0 0.00 0.00 0.00
20240622021729 58 340 0.0 4.0 0.00 0.00 0.00
20240622020702 63 327 7.0 19.0 0.00 0.00 0.00
20240622013546 66 325 0.0 3.0 0.00 0.00 0.00
20240622012520 67 105 0.0 0.0 0.00 0.00 0.00
20240622011455 67 337 0.0 0.0 0.00 0.00 0.00
20240622010941 67 337 0.0 0.0 0.00 0.00 0.00
20240622005403 69 73 0.0 0.0 0.00 0.00 0.00
20240622004850 69 115 0.0 0.0 0.00 0.00 0.00
20240622004337 70 337 0.0 0.0 0.00 0.00 0.00
20240622003824 70 351 0.0 0.0 0.00 0.00 0.00
20240622003311 71 337 0.0 0.0 0.00 0.00 0.00
20240622002758 72 315 0.0 0.0 0.00 0.00 0.00
20240622002246 72 322 0.0 0.0 0.00 0.00 0.00
20240622001220 73 315 0.0 0.0 0.00 0.00 0.00
20240622000154 74 22 0.0 0.0 0.00 0.00 0.00
20240621235641 75 138 0.0 0.0 0.00 0.00 0.00
20240621234615 76 357 0.0 0.0 0.00 0.00 0.00
20240621234103 77 317 0.0 0.0 0.00 0.00 0.00
20240621233550 78 305 0.0 4.0 0.00 0.00 0.00
20240621233037 80 315 0.0 1.0 0.00 0.00 0.00
20240621232524 81 337 0.0 0.0 0.00 0.00 0.00
20240621232011 80 6 0.0 0.0 0.00 0.00 0.00
20240621231459 80 311 0.0 2.0 0.00 0.00 0.00
20240621230946 80 337 0.0 2.0 0.00 0.00 0.00
20240621230433 80 247 0.0 0.0 0.00 0.00 0.00
20240621225920 79 337 0.0 0.0 0.00 0.00 0.00
20240621225407 79 320 0.0 4.0 0.00 0.00 0.00
20240621224854 79 318 0.0 1.0 0.00 0.00 0.00
20240621224341 79 329 0.0 1.0 0.00 0.00 0.00
20240621223316 78 225 0.0 0.0 0.00 0.00 0.00
20240621222250 78 295 0.0 2.0 0.00 0.00 0.00
20240621221737 77 166 0.0 0.0 0.00 0.00 0.00
20240621220712 76 337 0.0 0.0 0.00 0.00 0.00
20240621220159 76 148 0.0 0.0 0.00 0.00 0.00
20240621215646 76 315 0.0 0.0 0.00 0.00 0.00
20240621215133 76 315 1.0 3.0 0.00 0.00 0.00
20240621214620 75 337 0.0 0.0 0.00 0.00 0.00
20240621214107 74 337 0.0 0.0 0.00 0.00 0.00
20240621213554 73 356 0.0 0.0 0.00 0.00 0.00
20240621213042 71 337 0.0 0.0 0.00 0.00 0.00
20240621212708 69 92 0.0 0.0 0.00 0.00 0.00
20240621212529 69 338 0.0 0.0 0.00 0.00 0.00
20240621211503 69 92 0.0 0.0 0.00 0.00 0.00
20240621210438 69 315 0.0 0.0 0.00 0.00 0.00
20240621205925 69 337 0.0 0.0 0.00 0.00 0.00
20240621205412 67 337 0.0 0.0 0.00 0.00 0.00
20240621204859 67 142 0.0 0.0 0.00 0.00 0.00
20240621204346 65 149 0.0 0.0 0.00 0.00 0.00
20240621202807 63 171 0.0 0.0 0.00 0.00 0.00
20240621202255 63 124 0.0 0.0 0.00 0.00 0.00
20240621200716 63 337 0.0 0.0 0.00 0.00 0.00
20240621200205 64 337 0.0 1.0 0.00 0.00 0.00
20240621195651 66 144 0.0 4.0 0.00 0.00 0.00
20240621195138 67 145 2.0 4.0 0.00 0.00 0.00
20240621194625 66 164 0.0 4.0 0.00 0.00 0.00
20240621194112 65 147 0.0 4.0 0.00 0.00 0.00
20240621193559 63 73 0.0 0.0 0.00 0.00 0.00
20240621193046 61 137 0.0 3.0 0.00 0.00 0.00
20240621192533 59 128 0.0 0.0 0.00 0.00 0.00
20240621192020 58 126 0.0 0.0 0.00 0.00 0.00
20240621190442 60 5 0.0 0.0 0.00 0.00 0.00
20240621185418 60 262 0.0 0.0 0.00 0.00 0.00
20240621184351 61 334 0.0 0.0 0.00 0.00 0.00
20240621183838 62 315 0.0 0.0 0.00 0.00 0.00
20240621183325 62 337 0.0 0.0 0.00 0.00 0.00
20240621182259 62 140 0.0 0.0 0.00 0.00 0.00
20240621181746 63 180 0.0 0.0 0.00 0.00 0.00
20240621181233 63 337 0.0 0.0 0.00 0.00 0.00
20240621175655 62 125 0.0 0.0 0.00 0.00 0.00
20240621174629 61 337 0.0 0.0 0.00 0.00 0.00
20240621173603 60 140 0.0 0.0 0.00 0.00 0.00
20240621173051 60 136 0.0 0.0 0.00 0.00 0.00
20240621172538 61 111 0.0 0.0 0.00 0.00 0.00
20240621170959 63 135 0.0 0.0 0.00 0.00 0.00
20240621170447 64 33 0.0 0.0 0.00 0.00 0.00
20240621165934 64 317 0.0 0.0 0.00 0.00 0.00
20240621165421 64 318 0.0 0.0 0.00 0.00 0.00
20240621164908 64 315 0.0 0.0 0.00 0.00 0.00
20240621164355 64 315 0.0 0.0 0.00 0.00 0.00
20240621163842 64 315 0.0 0.0 0.00 0.00 0.00
20240621163329 64 343 0.0 0.0 0.00 0.00 0.00
20240621162818 65 337 0.0 0.0 0.00 0.00 0.00
20240621162306 65 4 0.0 0.0 0.00 0.00 0.00
20240621161751 65 281 0.0 0.0 0.00 0.00 0.00
20240621161238 65 328 0.0 0.0 0.00 0.00 0.00
20240621160725 66 20 0.0 0.0 0.00 0.00 0.00
20240621160212 66 337 0.0 0.0 0.00 0.00 0.00
20240621155147 66 192 0.0 0.0 0.00 0.00 0.00
20240621154634 66 124 0.0 0.0 0.00 0.00 0.00
20240621154121 66 141 0.0 0.0 0.00 0.00 0.00
20240621153608 66 0 0.0 0.0 0.00 0.00 0.00
20240621153055 66 22 0.0 0.0 0.00 0.00 0.00
20240621152542 67 90 0.0 0.0 0.00 0.00 0.00
20240621152103 67 84 0.0 0.0 0.00 0.00 0.00
20240621152031 67 84 0.0 0.0 0.00 0.00 0.00
20240621151517 67 0 0.0 0.0 0.00 0.00 0.00
20240621150451 69 337 0.0 0.0 0.00 0.00 0.00
20240621145938 68 225 0.0 0.0 0.00 0.00 0.00
20240621145425 65 171 0.0 2.0 0.00 0.00 0.00
20240621144913 65 337 0.0 3.0 0.00 0.00 0.00
20240621144400 66 153 0.0 2.0 0.00 0.00 0.00
20240621143334 67 163 0.0 3.0 0.00 0.00 0.00
20240621142821 67 137 0.0 3.0 0.00 0.00 0.00
20240621142308 69 146 0.0 1.0 0.00 0.00 0.00
20240621141755 67 316 0.0 0.0 0.00 0.00 0.00
20240621141243 66 350 0.0 0.0 0.00 0.00 0.00
20240621140730 63 147 0.0 0.0 0.00 0.00 0.00
20240621140217 65 147 0.0 0.0 0.00 0.00 0.00
20240621135704 65 142 0.0 2.0 0.00 0.00 0.00
20240621134127 58 225 0.0 0.0 0.00 0.00 0.00
20240621133613 55 120 0.0 0.0 0.00 0.00 0.00
20240621133100 54 126 0.0 0.0 0.00 0.00 0.00
20240621132547 54 145 0.0 0.0 0.00 0.00 0.00
20240621132034 54 137 0.0 0.0 0.00 0.00 0.00
20240621131521 54 337 0.0 0.0 0.00 0.00 0.00
20240621131008 53 337 0.0 0.0 0.00 0.00 0.00
20240621130456 53 337 0.0 0.0 0.00 0.00 0.00
20240621125943 53 337 0.0 0.0 0.00 0.00 0.00
20240621125430 53 337 0.0 0.0 0.00 0.00 0.00
20240621124404 52 337 0.0 0.0 0.00 0.00 0.00
20240621123851 52 337 0.0 0.0 0.00 0.00 0.00
20240621123339 52 337 0.0 0.0 0.00 0.00 0.00
20240621122826 52 338 0.0 0.0 0.00 0.00 0.00
20240621122313 52 142 0.0 0.0 0.00 0.00 0.00
20240621121247 51 337 0.0 0.0 0.00 0.00 0.00
20240621120221 51 81 0.0 0.0 0.00 0.00 0.00
20240621115156 51 337 0.0 0.0 0.00 0.00 0.00
20240621114643 51 337 0.0 0.0 0.00 0.00 0.00
20240621114130 52 337 0.0 0.0 0.00 0.00 0.00
20240621113617 52 337 0.0 0.0 0.00 0.00 0.00
20240621113104 52 337 0.0 0.0 0.00 0.00 0.00
20240621112552 52 90 0.0 0.0 0.00 0.00 0.00
20240621112038 52 315 0.0 0.0 0.00 0.00 0.00
20240621111526 52 0 0.0 0.0 0.00 0.00 0.00
20240621110501 52 114 0.0 0.0 0.00 0.00 0.00
20240621105947 52 337 0.0 0.0 0.00 0.00 0.00
20240621105434 52 67 0.0 0.0 0.00 0.00 0.00
20240621104409 52 337 0.0 0.0 0.00 0.00 0.00
20240621103856 52 337 0.0 0.0 0.00 0.00 0.00
20240621103343 53 337 0.0 0.0 0.00 0.00 0.00
20240621102317 53 136 0.0 0.0 0.00 0.00 0.00
20240621101804 53 337 0.0 0.0 0.00 0.00 0.00
20240621101251 53 0 0.0 0.0 0.00 0.00 0.00